createdAt,value
2023-03-18T00:01:28.017Z,12.02
2023-03-18T00:03:59.663Z,12.10
2023-03-18T00:06:31.562Z,12.07
2023-03-18T00:09:03.073Z,12.00
2023-03-18T00:11:34.544Z,12.48
2023-03-18T00:14:07.263Z,11.85
2023-03-18T00:16:38.991Z,12.10
2023-03-18T00:19:10.453Z,12.30
2023-03-18T00:21:41.861Z,11.38
2023-03-18T00:24:13.557Z,13.02
2023-03-18T00:26:45.015Z,13.88
2023-03-18T00:29:16.464Z,12.98
2023-03-18T00:31:47.993Z,13.30
2023-03-18T00:34:19.764Z,14.00
2023-03-18T00:36:51.222Z,13.65
2023-03-18T00:39:24.244Z,13.25
2023-03-18T00:41:56.861Z,12.85
2023-03-18T00:44:28.331Z,13.35
2023-03-18T00:46:59.885Z,14.52
2023-03-18T00:49:31.881Z,13.23
2023-03-18T00:52:03.361Z,14.20
2023-03-18T00:54:34.781Z,14.05
2023-03-18T00:57:06.297Z,13.10
2023-03-18T00:59:37.768Z,14.68
2023-03-18T01:02:09.257Z,15.65
2023-03-18T01:04:40.734Z,14.95
2023-03-18T01:07:12.314Z,14.13
2023-03-18T01:09:43.803Z,14.73
2023-03-18T01:12:15.742Z,15.07
2023-03-18T01:14:47.200Z,15.88
2023-03-18T01:17:18.684Z,16.38
2023-03-18T01:19:50.156Z,14.63
2023-03-18T01:22:21.591Z,16.15
2023-03-18T01:24:53.025Z,15.52
2023-03-18T01:27:24.804Z,15.98
2023-03-18T01:29:56.237Z,16.40
2023-03-18T01:32:27.773Z,16.63
2023-03-18T01:34:59.306Z,16.20
2023-03-18T01:37:30.753Z,15.63
2023-03-18T01:40:02.954Z,16.60
2023-03-18T01:42:34.627Z,17.05
2023-03-18T01:45:34.333Z,15.50
2023-03-18T01:48:06.045Z,16.17
2023-03-18T01:50:37.798Z,16.80
2023-03-18T01:53:13.425Z,17.15
2023-03-18T01:55:47.442Z,15.65
2023-03-18T01:58:33.413Z,16.45
2023-03-18T02:01:23.495Z,15.48
2023-03-18T02:03:55.193Z,16.83
2023-03-18T02:06:27.185Z,16.53
2023-03-18T02:08:58.934Z,16.50
2023-03-18T02:11:33.229Z,16.60
2023-03-18T02:14:06.936Z,17.20
2023-03-18T02:16:47.708Z,17.10
2023-03-18T02:19:28.324Z,15.52
2023-03-18T02:22:17.847Z,14.75
2023-03-18T02:25:00.966Z,15.30
2023-03-18T02:27:37.125Z,16.33
2023-03-18T02:30:14.047Z,15.07
2023-03-18T02:32:48.268Z,14.70
2023-03-18T02:35:20.181Z,18.58
2023-03-18T02:37:51.655Z,15.98
2023-03-18T02:40:32.911Z,15.40
2023-03-18T02:43:19.930Z,16.90
2023-03-18T02:46:30.379Z,16.58
2023-03-18T02:49:05.885Z,15.65
2023-03-18T02:51:38.013Z,15.57
2023-03-18T02:54:12.570Z,14.95
2023-03-18T02:56:44.330Z,15.02
2023-03-18T02:59:16.909Z,16.60
2023-03-18T03:01:50.832Z,16.30
2023-03-18T03:04:24.839Z,16.60
2023-03-18T03:06:58.099Z,15.40
2023-03-18T03:09:29.552Z,14.63
2023-03-18T03:12:01.029Z,16.40
2023-03-18T03:14:33.218Z,16.17
2023-03-18T03:17:04.704Z,15.73
2023-03-18T03:19:36.364Z,15.40
2023-03-18T03:22:07.881Z,15.32
2023-03-18T03:24:39.356Z,15.43
2023-03-18T03:27:11.269Z,16.10
2023-03-18T03:29:42.791Z,15.13
2023-03-18T03:32:14.455Z,15.13
2023-03-18T03:34:46.112Z,14.45
2023-03-18T03:37:17.863Z,15.53
2023-03-18T03:39:53.696Z,15.57
2023-03-18T03:42:25.104Z,15.52
2023-03-18T03:44:56.580Z,14.80
2023-03-18T03:47:28.062Z,15.60
2023-03-18T03:49:59.558Z,16.58
2023-03-18T03:52:31.057Z,15.82
2023-03-18T03:55:03.051Z,14.70
2023-03-18T03:57:34.809Z,16.33
2023-03-18T04:00:12.286Z,15.68
2023-03-18T04:02:45.041Z,15.73
2023-03-18T04:05:19.302Z,13.90
2023-03-18T04:07:51.911Z,15.60
2023-03-18T04:10:23.344Z,15.00
2023-03-18T04:12:55.061Z,14.48
2023-03-18T04:15:26.592Z,16.08
2023-03-18T04:17:58.100Z,13.85
2023-03-18T04:20:29.969Z,14.43
2023-03-18T04:23:01.802Z,12.95
2023-03-18T04:25:34.033Z,14.40
2023-03-18T04:28:05.565Z,13.73
2023-03-18T04:30:37.063Z,13.20
2023-03-18T04:33:08.719Z,12.48
2023-03-18T04:35:40.810Z,12.80
2023-03-18T04:38:12.330Z,13.77
2023-03-18T04:40:43.815Z,13.73
2023-03-18T04:43:15.228Z,13.23
2023-03-18T04:45:46.683Z,13.37
2023-03-18T04:48:18.541Z,12.55
2023-03-18T04:50:50.420Z,13.10
2023-03-18T04:53:21.898Z,12.40
2023-03-18T04:55:53.375Z,12.88
2023-03-18T04:58:24.792Z,12.75
2023-03-18T05:00:56.417Z,12.13
2023-03-18T05:03:27.915Z,13.63
2023-03-18T05:05:59.371Z,12.07
2023-03-18T05:08:30.862Z,12.35
2023-03-18T05:11:02.571Z,12.25
2023-03-18T05:13:34.004Z,12.88
2023-03-18T05:16:05.904Z,12.65
2023-03-18T05:18:38.500Z,13.45
2023-03-18T05:21:10.936Z,13.85
2023-03-18T05:23:42.851Z,13.27
2023-03-18T05:26:14.486Z,11.40
2023-03-18T05:28:46.083Z,12.82
2023-03-18T05:31:17.564Z,12.02
2023-03-18T05:33:49.092Z,11.77
2023-03-18T05:36:20.839Z,11.20
2023-03-18T05:38:52.358Z,11.55
2023-03-18T05:41:23.830Z,9.68
2023-03-18T05:43:55.301Z,10.68
2023-03-18T05:46:26.949Z,10.38
2023-03-18T05:48:58.451Z,9.90
2023-03-18T05:51:29.899Z,10.65
2023-03-18T05:54:02.024Z,11.02
2023-03-18T05:56:33.455Z,12.60
2023-03-18T05:59:04.876Z,10.67
2023-03-18T06:01:37.591Z,9.65
2023-03-18T06:04:09.403Z,11.27
2023-03-18T06:06:41.206Z,11.25
2023-03-18T06:09:13.830Z,11.68
2023-03-18T06:11:45.618Z,13.40
2023-03-18T06:14:17.269Z,11.25
2023-03-18T06:16:48.929Z,11.80
2023-03-18T06:19:20.356Z,14.80
2023-03-18T06:21:51.984Z,13.27
2023-03-18T06:24:23.426Z,11.70
2023-03-18T06:26:54.869Z,13.05
2023-03-18T06:29:26.297Z,12.35
2023-03-18T06:31:57.779Z,14.35
2023-03-18T06:34:29.318Z,13.40
2023-03-18T06:37:00.802Z,13.43
2023-03-18T06:39:32.215Z,13.45
2023-03-18T06:42:03.981Z,15.43
2023-03-18T06:44:35.388Z,16.25
2023-03-18T06:47:06.900Z,17.13
2023-03-18T06:49:38.341Z,17.23
2023-03-18T06:52:09.777Z,14.07
2023-03-18T06:54:41.699Z,13.98
2023-03-18T06:57:13.326Z,15.68
2023-03-18T06:59:44.855Z,14.77
2023-03-18T07:02:16.642Z,14.48
2023-03-18T07:04:48.225Z,15.70
2023-03-18T07:07:19.715Z,14.55
2023-03-18T07:09:51.251Z,16.40
2023-03-18T07:12:22.767Z,16.23
2023-03-18T07:14:54.251Z,15.20
2023-03-18T07:17:25.808Z,14.27
2023-03-18T07:19:57.239Z,14.82
2023-03-18T07:22:28.668Z,14.82
2023-03-18T07:25:00.154Z,15.70
2023-03-18T07:27:31.570Z,14.43
2023-03-18T07:30:03.900Z,14.95
2023-03-18T07:32:36.222Z,13.65
2023-03-18T07:35:08.374Z,13.27
2023-03-18T07:37:42.363Z,13.30
2023-03-18T07:40:14.491Z,13.20
2023-03-18T07:42:45.921Z,14.47
2023-03-18T07:45:17.908Z,14.88
2023-03-18T07:47:49.528Z,15.07
2023-03-18T07:50:20.999Z,15.05
2023-03-18T07:52:52.420Z,15.05
2023-03-18T07:55:23.930Z,14.70
2023-03-18T07:57:55.392Z,14.60
2023-03-18T08:00:27.135Z,15.68
2023-03-18T08:02:58.718Z,14.75
2023-03-18T08:05:30.478Z,14.40
2023-03-18T08:08:02.657Z,14.50
2023-03-18T08:10:34.131Z,14.40
2023-03-18T08:13:05.659Z,12.40
2023-03-18T08:15:37.102Z,13.40
2023-03-18T08:18:09.461Z,13.20
2023-03-18T08:20:40.937Z,13.18
2023-03-18T08:23:12.377Z,12.63
2023-03-18T08:25:47.668Z,11.93
2023-03-18T08:28:19.697Z,13.27
2023-03-18T08:30:55.212Z,12.82
2023-03-18T08:33:27.842Z,12.52
2023-03-18T08:35:59.380Z,13.40
2023-03-18T08:38:30.888Z,13.85
2023-03-18T08:41:02.423Z,13.50
2023-03-18T08:43:33.828Z,13.15
2023-03-18T08:46:07.005Z,13.88
2023-03-18T08:48:38.617Z,13.45
2023-03-18T08:51:10.404Z,13.30
2023-03-18T08:53:42.552Z,13.63
2023-03-18T08:56:14.052Z,13.20
2023-03-18T08:58:45.508Z,14.95
2023-03-18T09:01:17.491Z,14.55
2023-03-18T09:03:49.841Z,13.70
2023-03-18T09:06:21.325Z,13.98
2023-03-18T09:08:52.765Z,15.43
2023-03-18T09:11:24.623Z,16.35
2023-03-18T09:13:56.067Z,16.20
2023-03-18T09:16:27.566Z,15.20
2023-03-18T09:18:59.067Z,14.55
2023-03-18T09:21:30.677Z,15.50
2023-03-18T09:24:02.116Z,17.20
2023-03-18T09:26:33.759Z,15.50
2023-03-18T09:29:05.621Z,15.32
2023-03-18T09:31:37.483Z,15.40
2023-03-18T09:34:08.928Z,14.85
2023-03-18T09:36:40.960Z,14.88
2023-03-18T09:39:12.419Z,15.20
2023-03-18T09:42:06.207Z,14.83
2023-03-18T09:44:38.151Z,14.38
2023-03-18T09:47:37.319Z,13.05
2023-03-18T09:50:39.208Z,13.65
2023-03-18T09:53:19.805Z,13.80
2023-03-18T09:55:58.540Z,15.05
2023-03-18T09:58:52.856Z,15.47
2023-03-18T10:01:27.693Z,14.20
2023-03-18T10:04:07.061Z,14.20
2023-03-18T10:06:42.477Z,14.80
2023-03-18T10:09:24.958Z,13.50
2023-03-18T10:12:16.744Z,13.55
2023-03-18T10:15:13.117Z,15.90
2023-03-18T10:17:58.219Z,15.80
2023-03-18T10:20:44.152Z,15.80
2023-03-18T10:23:31.614Z,14.27
2023-03-18T10:26:16.088Z,13.40
2023-03-18T10:29:32.399Z,12.65
2023-03-18T10:32:03.818Z,14.80
2023-03-18T10:34:56.860Z,14.93
2023-03-18T10:37:42.238Z,13.35
2023-03-18T10:40:16.103Z,14.47
2023-03-18T10:42:50.822Z,12.85
2023-03-18T10:45:29.780Z,12.23
2023-03-18T10:48:11.045Z,12.53
2023-03-18T10:50:50.334Z,12.50
2023-03-18T10:53:33.322Z,11.98
2023-03-18T10:56:09.647Z,11.67
2023-03-18T10:58:42.525Z,11.07
2023-03-18T11:01:19.439Z,10.50
2023-03-18T11:04:00.804Z,10.73
2023-03-18T11:06:44.188Z,9.45
2023-03-18T11:09:21.874Z,10.00
2023-03-18T11:11:57.705Z,10.45
2023-03-18T11:14:31.401Z,11.32
2023-03-18T11:17:05.717Z,10.45
2023-03-18T11:19:37.092Z,11.40
2023-03-18T11:22:19.136Z,11.82
2023-03-18T11:25:17.760Z,11.43
2023-03-18T11:27:52.363Z,11.77
2023-03-18T11:30:43.926Z,11.90
2023-03-18T11:33:17.321Z,11.77
2023-03-18T11:35:57.628Z,13.00
2023-03-18T11:38:34.815Z,11.23
2023-03-18T11:41:22.410Z,11.57
2023-03-18T11:44:02.484Z,10.63
2023-03-18T11:46:58.778Z,10.48
2023-03-18T11:49:30.858Z,10.05
2023-03-18T11:52:28.317Z,9.85
2023-03-18T11:55:02.618Z,9.27
2023-03-18T11:57:53.049Z,8.87
2023-03-18T12:00:30.621Z,8.77
2023-03-18T12:03:26.598Z,8.50
2023-03-18T12:06:26.234Z,8.10
2023-03-18T12:09:24.097Z,7.00
2023-03-18T12:12:31.938Z,6.82
2023-03-18T12:15:15.606Z,6.90
2023-03-18T12:18:08.874Z,6.28
2023-03-18T12:20:54.707Z,6.53
2023-03-18T12:23:26.105Z,6.60
2023-03-18T12:26:31.379Z,7.03
2023-03-18T12:29:43.596Z,7.07
2023-03-18T12:32:25.139Z,6.47
2023-03-18T12:35:29.283Z,7.43
2023-03-18T12:38:15.064Z,6.53
2023-03-18T12:41:09.869Z,7.05
2023-03-18T12:43:47.360Z,6.25
2023-03-18T12:46:33.629Z,5.72
2023-03-18T12:49:36.948Z,5.65
2023-03-18T12:52:13.435Z,5.25
2023-03-18T12:54:52.103Z,5.18
2023-03-18T12:57:36.866Z,4.95
2023-03-18T13:00:37.221Z,4.10
2023-03-18T13:03:25.852Z,3.00
2023-03-18T13:06:03.888Z,3.00
2023-03-18T13:08:59.648Z,2.15
2023-03-18T13:11:43.310Z,2.55
2023-03-18T13:14:39.451Z,2.75
2023-03-18T13:17:17.651Z,3.15
2023-03-18T13:19:49.250Z,3.05
2023-03-18T13:22:43.724Z,2.72
2023-03-18T13:25:18.128Z,2.40
2023-03-18T13:28:08.244Z,2.27
2023-03-18T13:30:45.643Z,2.35
2023-03-18T13:33:32.100Z,2.13
2023-03-18T13:36:21.868Z,2.40
2023-03-18T13:39:15.013Z,4.80
2023-03-18T13:42:09.607Z,4.00
2023-03-18T13:45:02.826Z,3.50
2023-03-18T13:47:37.583Z,3.38
2023-03-18T13:50:20.790Z,3.25
2023-03-18T13:52:56.388Z,3.50
2023-03-18T13:55:41.606Z,3.90
2023-03-18T13:58:28.243Z,4.50
2023-03-18T14:00:59.652Z,4.13
2023-03-18T14:03:51.986Z,3.75
2023-03-18T14:06:46.650Z,3.42
2023-03-18T14:09:30.572Z,2.33
2023-03-18T14:12:20.427Z,1.60
2023-03-18T14:14:51.865Z,1.50
2023-03-18T14:17:30.231Z,1.63
2023-03-18T14:20:15.350Z,1.33
2023-03-18T14:22:50.325Z,1.50
2023-03-18T14:25:30.975Z,1.55
2023-03-18T14:28:08.459Z,1.70
2023-03-18T14:30:44.179Z,1.48
2023-03-18T14:33:47.322Z,1.60
2023-03-18T14:36:28.626Z,1.90
2023-03-18T14:39:03.120Z,2.08
2023-03-18T14:41:41.259Z,2.15
2023-03-18T14:44:47.665Z,1.80
2023-03-18T14:47:35.939Z,2.03
2023-03-18T14:50:28.990Z,2.07
2023-03-18T14:53:09.440Z,1.95
2023-03-18T14:55:42.309Z,2.20
2023-03-18T14:58:18.962Z,2.22
2023-03-18T15:00:54.158Z,2.20
2023-03-18T15:03:28.807Z,2.13
2023-03-18T15:06:02.585Z,2.13
2023-03-18T15:08:47.449Z,2.37
2023-03-18T15:11:21.186Z,2.95
2023-03-18T15:13:58.246Z,2.47
2023-03-18T15:16:31.113Z,2.50
2023-03-18T15:19:02.926Z,2.70
2023-03-18T15:21:35.991Z,2.53
2023-03-18T15:24:08.025Z,2.47
2023-03-18T15:26:41.328Z,2.30
2023-03-18T15:29:22.566Z,2.50
2023-03-18T15:32:07.765Z,2.60
2023-03-18T15:34:43.076Z,2.70
2023-03-18T15:37:24.604Z,2.70
2023-03-18T15:39:56.442Z,2.63
2023-03-18T15:42:28.385Z,2.40
2023-03-18T15:45:01.874Z,2.50
2023-03-18T15:47:33.577Z,2.40
2023-03-18T15:50:29.550Z,2.50
2023-03-18T15:53:20.895Z,2.13
2023-03-18T15:55:57.858Z,2.00
2023-03-18T15:58:37.308Z,1.90
2023-03-18T16:01:15.688Z,2.10
2023-03-18T16:03:48.853Z,1.80
2023-03-18T16:06:20.374Z,1.90
2023-03-18T16:08:51.801Z,1.97
2023-03-18T16:11:24.915Z,1.80
2023-03-18T16:13:57.458Z,2.00
2023-03-18T16:16:29.389Z,1.80
2023-03-18T16:19:00.865Z,1.88
2023-03-18T16:21:32.252Z,2.15
2023-03-18T16:24:04.764Z,1.83
2023-03-18T16:26:36.444Z,2.00
2023-03-18T16:29:17.089Z,1.60
2023-03-18T16:31:48.817Z,2.00
2023-03-18T16:34:21.855Z,2.10
2023-03-18T16:36:53.694Z,1.77
2023-03-18T16:39:26.839Z,1.80
2023-03-18T16:41:58.307Z,2.00
2023-03-18T16:44:29.889Z,2.20
2023-03-18T16:47:01.695Z,1.92
2023-03-18T16:49:34.685Z,2.10
2023-03-18T16:52:06.281Z,1.90
2023-03-18T16:54:37.951Z,1.77
2023-03-18T16:57:21.099Z,1.88
2023-03-18T16:59:53.828Z,2.17
2023-03-18T17:02:31.462Z,1.75
2023-03-18T17:05:02.897Z,2.17
2023-03-18T17:07:34.381Z,2.05
2023-03-18T17:10:06.390Z,2.00
2023-03-18T17:12:39.155Z,1.73
2023-03-18T17:15:14.168Z,1.67
2023-03-18T17:17:47.102Z,1.90
2023-03-18T17:20:22.061Z,1.75
2023-03-18T17:22:53.887Z,1.90
2023-03-18T17:25:27.873Z,1.98
2023-03-18T17:28:03.189Z,1.80
2023-03-18T17:30:41.341Z,1.83
2023-03-18T17:33:33.743Z,2.03
2023-03-18T17:36:07.074Z,1.83
2023-03-18T17:38:38.581Z,1.90
2023-03-18T17:41:20.105Z,1.95
2023-03-18T17:43:51.519Z,1.90
2023-03-18T17:46:23.066Z,2.55
2023-03-18T17:48:54.937Z,2.30
2023-03-18T17:51:26.441Z,2.13
2023-03-18T17:53:59.577Z,2.30
2023-03-18T17:56:31.124Z,2.30
2023-03-18T17:59:05.864Z,2.08
2023-03-18T18:01:37.297Z,2.43
2023-03-18T18:04:15.697Z,2.70
2023-03-18T18:06:49.261Z,2.50
2023-03-18T18:09:24.433Z,2.80
2023-03-18T18:11:55.888Z,2.83
2023-03-18T18:14:27.644Z,2.78
2023-03-18T18:16:59.090Z,3.43
2023-03-18T18:19:30.756Z,3.22
2023-03-18T18:22:02.675Z,3.33
2023-03-18T18:24:34.337Z,2.95
2023-03-18T18:27:06.334Z,3.33
2023-03-18T18:29:37.789Z,3.10
2023-03-18T18:32:10.322Z,3.42
2023-03-18T18:34:41.787Z,2.93
2023-03-18T18:37:13.315Z,3.10
2023-03-18T18:39:44.784Z,3.20
2023-03-18T18:42:16.248Z,2.87
2023-03-18T18:44:47.754Z,2.80
2023-03-18T18:47:19.181Z,3.05
2023-03-18T18:49:50.679Z,3.40
2023-03-18T18:52:22.142Z,3.22
2023-03-18T18:54:53.623Z,3.00
2023-03-18T18:57:28.034Z,3.67
2023-03-18T18:59:59.452Z,3.53
2023-03-18T19:02:33.374Z,3.38
2023-03-18T19:05:05.262Z,3.90
2023-03-18T19:07:38.795Z,3.67
2023-03-18T19:10:15.826Z,4.47
2023-03-18T19:12:47.574Z,4.00
2023-03-18T19:15:19.193Z,4.45
2023-03-18T19:17:51.113Z,3.80
2023-03-18T19:20:29.063Z,3.60
2023-03-18T19:23:00.480Z,3.63
2023-03-18T19:25:32.406Z,2.65
2023-03-18T19:28:04.189Z,2.10
2023-03-18T19:30:35.689Z,2.20
2023-03-18T19:33:17.112Z,1.80
2023-03-18T19:35:48.634Z,1.77
2023-03-18T19:38:21.463Z,1.95
2023-03-18T19:40:52.927Z,2.00
2023-03-18T19:43:24.448Z,1.90
2023-03-18T19:45:55.962Z,2.53
2023-03-18T19:48:27.707Z,2.10
2023-03-18T19:50:59.159Z,2.08
2023-03-18T19:53:30.835Z,2.28
2023-03-18T19:56:03.038Z,2.42
2023-03-18T19:58:34.718Z,2.47
2023-03-18T20:01:06.242Z,2.70
2023-03-18T20:03:37.715Z,2.90
2023-03-18T20:06:09.135Z,2.83
2023-03-18T20:08:40.535Z,2.90
2023-03-18T20:11:16.677Z,4.13
2023-03-18T20:13:48.646Z,5.07
2023-03-18T20:16:20.177Z,6.38
2023-03-18T20:18:51.698Z,6.85
2023-03-18T20:21:29.853Z,5.50
2023-03-18T20:24:07.768Z,4.45
2023-03-18T20:26:39.206Z,4.10
2023-03-18T20:29:17.684Z,3.78
2023-03-18T20:31:49.298Z,3.65
2023-03-18T20:34:20.822Z,3.88
2023-03-18T20:36:52.256Z,3.75
2023-03-18T20:39:23.760Z,4.43
2023-03-18T20:41:55.209Z,4.68
2023-03-18T20:44:26.637Z,4.65
2023-03-18T20:46:58.046Z,3.90
2023-03-18T20:49:29.527Z,3.78
2023-03-18T20:52:01.015Z,3.90
2023-03-18T20:54:32.600Z,3.00
2023-03-18T20:57:04.135Z,3.17
2023-03-18T20:59:35.589Z,3.70
2023-03-18T21:02:29.747Z,4.10
2023-03-18T21:05:02.358Z,4.45
2023-03-18T21:07:33.839Z,4.15
2023-03-18T21:10:06.968Z,4.20
2023-03-18T21:12:38.489Z,4.20
2023-03-18T21:15:15.729Z,4.53
2023-03-18T21:17:47.476Z,4.50
2023-03-18T21:20:24.412Z,4.85
2023-03-18T21:22:55.888Z,6.15
2023-03-18T21:25:28.129Z,6.10
2023-03-18T21:27:59.612Z,6.53
2023-03-18T21:30:31.144Z,6.60
2023-03-18T21:33:02.725Z,7.53
2023-03-18T21:35:34.456Z,7.50
2023-03-18T21:38:08.420Z,6.95
2023-03-18T21:40:40.114Z,6.75
2023-03-18T21:43:32.140Z,7.63
2023-03-18T21:46:10.093Z,7.20
2023-03-18T21:48:41.616Z,6.03
2023-03-18T21:51:39.107Z,7.22
2023-03-18T21:54:18.223Z,7.00
2023-03-18T21:56:49.707Z,6.97
2023-03-18T21:59:21.283Z,6.97
2023-03-18T22:01:52.784Z,7.10
2023-03-18T22:04:24.447Z,7.03
2023-03-18T22:06:55.945Z,8.20
2023-03-18T22:09:27.405Z,7.80
2023-03-18T22:11:58.847Z,7.25
2023-03-18T22:14:30.329Z,6.93
2023-03-18T22:17:01.795Z,6.78
2023-03-18T22:19:33.239Z,6.88
2023-03-18T22:22:04.738Z,6.72
2023-03-18T22:24:36.208Z,7.57
2023-03-18T22:27:18.869Z,7.67
2023-03-18T22:29:51.963Z,7.43
2023-03-18T22:32:40.193Z,8.77
2023-03-18T22:35:23.686Z,7.55
2023-03-18T22:37:55.723Z,8.60
2023-03-18T22:40:31.792Z,7.40
2023-03-18T22:43:03.201Z,8.07
2023-03-18T22:45:34.975Z,8.13
2023-03-18T22:48:07.483Z,6.97
2023-03-18T22:50:38.956Z,6.50
2023-03-18T22:53:21.670Z,5.90
2023-03-18T22:55:55.770Z,5.38
2023-03-18T22:58:28.167Z,5.22
2023-03-18T23:00:59.636Z,4.63
2023-03-18T23:03:34.265Z,4.40
2023-03-18T23:06:06.417Z,5.47
2023-03-18T23:08:37.871Z,5.50
2023-03-18T23:11:09.448Z,6.63
2023-03-18T23:13:43.599Z,6.57
2023-03-18T23:16:18.202Z,7.70
2023-03-18T23:18:50.188Z,8.98
2023-03-18T23:21:24.630Z,8.80
2023-03-18T23:23:56.069Z,10.40
2023-03-18T23:26:27.501Z,10.23
2023-03-18T23:28:58.876Z,11.18
2023-03-18T23:31:30.381Z,11.10
2023-03-18T23:34:02.016Z,11.32
2023-03-18T23:36:33.487Z,11.80
2023-03-18T23:39:05.083Z,12.00
2023-03-18T23:41:36.537Z,12.18
2023-03-18T23:44:08.048Z,12.07
2023-03-18T23:46:39.609Z,11.70
2023-03-18T23:49:11.884Z,11.40
2023-03-18T23:51:43.563Z,11.88
2023-03-18T23:54:15.060Z,11.83
2023-03-18T23:56:46.547Z,11.95
2023-03-18T23:59:18.146Z,12.50
